Time,TemperatureF,DewpointF,PressureIn,WindDirection,WindDirectionDegrees,WindSpeedMPH,WindSpeedGustMPH,Humidity,HourlyPrecipIn,Conditions,Clouds,dailyrainin,SoftwareType,DateUTC
2013-01-22 00:33:00,26.0,-99.9,29.81,WSW,253,-999.0,12.0,-999,-99.99,,,-99.99,,2013-01-22 05:33:00,
2013-01-22 00:43:00,26.0,-99.9,29.81,WSW,253,-999.0,12.0,-999,-99.99,,,-99.99,,2013-01-22 05:43:00,
2013-01-22 00:52:00,25.0,-99.9,29.80,West,278,-999.0,9.0,-999,-99.99,,,-99.99,,2013-01-22 05:52:00,
2013-01-22 01:22:00,25.0,-99.9,29.80,West,278,-999.0,9.0,-999,-99.99,,,-99.99,,2013-01-22 06:22:00,
2013-01-22 01:33:00,25.0,-99.9,29.80,West,278,-999.0,9.0,-999,-99.99,,,-99.99,,2013-01-22 06:33:00,
2013-01-22 01:43:00,25.0,-99.9,29.80,West,278,-999.0,9.0,-999,-99.99,,,-99.99,,2013-01-22 06:43:00,
2013-01-22 01:52:00,24.0,-99.9,29.83,NNW,346,-999.0,9.0,-999,-99.99,,,-99.99,,2013-01-22 06:52:00,
2013-01-22 02:33:00,24.0,-99.9,29.83,NNW,346,-999.0,9.0,-999,-99.99,,,-99.99,,2013-01-22 07:33:00,
2013-01-22 02:43:00,24.0,-99.9,29.83,NNW,346,-999.0,9.0,-999,-99.99,,,-99.99,,2013-01-22 07:43:00,
2013-01-22 02:52:00,23.0,-99.9,29.84,WNW,289,8.0,15.0,-999,-99.99,,,-99.99,,2013-01-22 07:52:00,
2013-01-22 03:22:00,23.0,-99.9,29.84,WNW,289,8.0,15.0,-999,-99.99,,,-99.99,,2013-01-22 08:22:00,
2013-01-22 03:33:00,23.0,-99.9,29.84,WNW,289,8.0,15.0,-999,-99.99,,,-99.99,,2013-01-22 08:33:00,
2013-01-22 03:43:00,23.0,-99.9,29.84,WNW,289,8.0,15.0,-999,-99.99,,,-99.99,,2013-01-22 08:43:00,
2013-01-22 03:52:00,22.0,-99.9,29.86,West,265,-999.0,9.0,-999,-99.99,,,-99.99,,2013-01-22 08:52:00,
2013-01-22 04:23:00,22.0,-99.9,29.86,West,265,-999.0,9.0,-999,-99.99,,,-99.99,,2013-01-22 09:23:00,
2013-01-22 04:33:00,22.0,-99.9,29.86,West,265,-999.0,9.0,-999,-99.99,,,-99.99,,2013-01-22 09:33:00,
2013-01-22 04:43:00,22.0,-99.9,29.86,West,265,-999.0,9.0,-999,-99.99,,,-99.99,,2013-01-22 09:43:00,
2013-01-22 04:52:00,22.0,-99.9,29.88,West,269,-999.0,17.0,-999,-99.99,,,-99.99,,2013-01-22 09:52:00,
2013-01-22 05:22:00,22.0,-99.9,29.88,West,269,-999.0,17.0,-999,-99.99,,,-99.99,,2013-01-22 10:22:00,
2013-01-22 05:33:00,22.0,-99.9,29.88,West,269,-999.0,17.0,-999,-99.99,,,-99.99,,2013-01-22 10:33:00,
2013-01-22 05:43:00,22.0,-99.9,29.88,West,269,-999.0,17.0,-999,-99.99,,,-99.99,,2013-01-22 10:43:00,
2013-01-22 05:52:00,21.0,-99.9,29.93,NNW,334,8.0,19.0,-999,-99.99,,,-99.99,,2013-01-22 10:52:00,
2013-01-22 06:23:00,21.0,-99.9,29.93,NNW,334,8.0,19.0,-999,-99.99,,,-99.99,,2013-01-22 11:23:00,
2013-01-22 06:33:00,21.0,-99.9,29.93,NNW,334,8.0,19.0,-999,-99.99,,,-99.99,,2013-01-22 11:33:00,
2013-01-22 06:43:00,21.0,-99.9,29.93,NNW,334,8.0,19.0,-999,-99.99,,,-99.99,,2013-01-22 11:43:00,
2013-01-22 06:52:00,19.0,-99.9,29.95,NW,312,-999.0,10.0,-999,-99.99,,,-99.99,,2013-01-22 11:52:00,
2013-01-22 07:23:00,19.0,-99.9,29.95,NW,312,-999.0,10.0,-999,-99.99,,,-99.99,,2013-01-22 12:23:00,
2013-01-22 07:33:00,19.0,-99.9,29.95,NW,312,-999.0,10.0,-999,-99.99,,,-99.99,,2013-01-22 12:33:00,
2013-01-22 07:43:00,19.0,-99.9,29.95,NW,312,-999.0,10.0,-999,-99.99,,,-99.99,,2013-01-22 12:43:00,
2013-01-22 07:52:00,19.0,-99.9,29.98,WNW,302,-999.0,10.0,-999,-99.99,,,-99.99,,2013-01-22 12:52:00,
2013-01-22 08:24:00,19.0,-99.9,29.98,WNW,302,-999.0,10.0,-999,-99.99,,,-99.99,,2013-01-22 13:24:00,
2013-01-22 08:34:00,19.0,-99.9,29.98,WNW,302,-999.0,10.0,-999,-99.99,,,-99.99,,2013-01-22 13:34:00,
2013-01-22 08:43:00,19.0,-99.9,29.98,WNW,302,-999.0,10.0,-999,-99.99,,,-99.99,,2013-01-22 13:43:00,
2013-01-22 08:52:00,20.0,-99.9,30.00,NNW,334,3.0,12.0,-999,-99.99,,,-99.99,,2013-01-22 13:52:00,
2013-01-22 09:34:00,20.0,-99.9,30.00,NNW,334,3.0,12.0,-999,-99.99,,,-99.99,,2013-01-22 14:34:00,
2013-01-22 09:45:00,20.0,-99.9,30.00,NNW,334,3.0,12.0,-999,-99.99,,,-99.99,,2013-01-22 14:45:00,
2013-01-22 09:52:00,19.0,-99.9,30.02,West,279,-999.0,13.0,-999,-99.99,,,-99.99,,2013-01-22 14:52:00,
2013-01-22 10:34:00,19.0,-99.9,30.02,West,279,-999.0,13.0,-999,-99.99,,,-99.99,,2013-01-22 15:34:00,
2013-01-22 10:44:00,19.0,-99.9,30.02,West,279,-999.0,13.0,-999,-99.99,,,-99.99,,2013-01-22 15:44:00,
2013-01-22 10:52:00,22.0,-99.9,30.01,NNW,331,6.0,13.0,-999,-99.99,,,-99.99,,2013-01-22 15:52:00,
2013-01-22 11:24:00,22.0,-99.9,30.01,NNW,331,6.0,13.0,-999,-99.99,,,-99.99,,2013-01-22 16:24:00,
2013-01-22 11:34:00,22.0,-99.9,30.01,NNW,331,6.0,13.0,-999,-99.99,,,-99.99,,2013-01-22 16:34:00,
2013-01-22 11:43:00,22.0,-99.9,30.01,NNW,331,6.0,13.0,-999,-99.99,,,-99.99,,2013-01-22 16:43:00,
2013-01-22 11:52:00,22.0,-99.9,30.00,WSW,242,11.0,17.0,-999,-99.99,,,-99.99,,2013-01-22 16:52:00,
2013-01-22 12:24:00,22.0,-99.9,30.00,WSW,242,11.0,17.0,-999,-99.99,,,-99.99,,2013-01-22 17:24:00,
2013-01-22 12:35:00,22.0,-99.9,30.00,WSW,242,11.0,17.0,-999,-99.99,,,-99.99,,2013-01-22 17:35:00,
2013-01-22 12:44:00,22.0,-99.9,30.00,WSW,242,11.0,17.0,-999,-99.99,,,-99.99,,2013-01-22 17:44:00,
2013-01-22 12:52:00,22.0,-99.9,29.98,NW,308,5.0,20.0,-999,-99.99,,,-99.99,,2013-01-22 17:52:00,
2013-01-22 13:34:00,22.0,-99.9,29.98,NW,308,5.0,20.0,-999,-99.99,,,-99.99,,2013-01-22 18:34:00,
2013-01-22 13:44:00,22.0,-99.9,29.98,NW,308,5.0,20.0,-999,-99.99,,,-99.99,,2013-01-22 18:44:00,
2013-01-22 13:52:00,23.0,-99.9,29.99,WNW,291,5.0,23.0,-999,-99.99,,,-99.99,,2013-01-22 18:52:00,
2013-01-22 14:24:00,23.0,-99.9,29.99,WNW,291,5.0,23.0,-999,-99.99,,,-99.99,,2013-01-22 19:24:00,
2013-01-22 14:34:00,23.0,-99.9,29.99,WNW,291,5.0,23.0,-999,-99.99,,,-99.99,,2013-01-22 19:34:00,
2013-01-22 14:44:00,23.0,-99.9,29.99,WNW,291,5.0,23.0,-999,-99.99,,,-99.99,,2013-01-22 19:44:00,
2013-01-22 14:52:00,22.0,-99.9,30.00,SW,230,-999.0,15.0,-999,-99.99,,,-99.99,,2013-01-22 19:52:00,
2013-01-22 15:23:00,22.0,-99.9,30.00,SW,230,-999.0,15.0,-999,-99.99,,,-99.99,,2013-01-22 20:23:00,
2013-01-22 15:34:00,22.0,-99.9,30.00,SW,230,-999.0,15.0,-999,-99.99,,,-99.99,,2013-01-22 20:34:00,
2013-01-22 15:43:00,22.0,-99.9,30.00,SW,230,-999.0,15.0,-999,-99.99,,,-99.99,,2013-01-22 20:43:00,
2013-01-22 15:52:00,20.0,-99.9,30.03,SW,232,15.0,20.0,-999,-99.99,,,-99.99,,2013-01-22 20:52:00,
2013-01-22 16:34:00,20.0,-99.9,30.03,SW,232,15.0,20.0,-999,-99.99,,,-99.99,,2013-01-22 21:34:00,
2013-01-22 16:44:00,20.0,-99.9,30.03,SW,232,15.0,20.0,-999,-99.99,,,-99.99,,2013-01-22 21:44:00,
2013-01-22 16:52:00,19.0,-99.9,30.06,West,259,13.0,16.0,-999,-99.99,,,-99.99,,2013-01-22 21:52:00,
2013-01-22 17:23:00,19.0,-99.9,30.06,West,259,13.0,16.0,-999,-99.99,,,-99.99,,2013-01-22 22:23:00,
2013-01-22 17:33:00,19.0,-99.9,30.06,West,259,13.0,16.0,-999,-99.99,,,-99.99,,2013-01-22 22:33:00,
2013-01-22 17:44:00,19.0,-99.9,30.06,West,259,13.0,16.0,-999,-99.99,,,-99.99,,2013-01-22 22:44:00,
2013-01-22 17:52:00,17.0,-99.9,30.09,WNW,299,-999.0,9.0,-999,-99.99,,,-99.99,,2013-01-22 22:52:00,
2013-01-22 18:24:00,17.0,-99.9,30.09,WNW,299,-999.0,9.0,-999,-99.99,,,-99.99,,2013-01-22 23:24:00,
2013-01-22 18:34:00,17.0,-99.9,30.09,WNW,299,-999.0,9.0,-999,-99.99,,,-99.99,,2013-01-22 23:34:00,
2013-01-22 18:43:00,17.0,-99.9,30.09,WNW,299,-999.0,9.0,-999,-99.99,,,-99.99,,2013-01-22 23:43:00,
2013-01-22 18:52:00,17.0,-99.9,30.11,WSW,246,-999.0,15.0,-999,-99.99,,,-99.99,,2013-01-22 23:52:00,
2013-01-22 19:33:00,17.0,-99.9,30.11,WSW,246,-999.0,15.0,-999,-99.99,,,-99.99,,2013-01-23 00:33:00,
2013-01-22 19:43:00,17.0,-99.9,30.11,WSW,246,-999.0,15.0,-999,-99.99,,,-99.99,,2013-01-23 00:43:00,
2013-01-22 19:52:00,16.0,-99.9,30.13,West,269,-999.0,11.0,-999,-99.99,,,-99.99,,2013-01-23 00:52:00,
2013-01-22 20:23:00,16.0,-99.9,30.13,West,269,-999.0,11.0,-999,-99.99,,,-99.99,,2013-01-23 01:23:00,
2013-01-22 20:33:00,16.0,-99.9,30.13,West,269,-999.0,11.0,-999,-99.99,,,-99.99,,2013-01-23 01:33:00,
2013-01-22 20:43:00,16.0,-99.9,30.13,West,269,-999.0,11.0,-999,-99.99,,,-99.99,,2013-01-23 01:43:00,
2013-01-22 20:52:00,15.0,-99.9,30.15,WNW,299,-999.0,16.0,-999,-99.99,,,-99.99,,2013-01-23 01:52:00,
2013-01-22 21:33:00,15.0,-99.9,30.15,WNW,299,-999.0,16.0,-999,-99.99,,,-99.99,,2013-01-23 02:33:00,
2013-01-22 21:43:00,15.0,-99.9,30.15,WNW,299,-999.0,16.0,-999,-99.99,,,-99.99,,2013-01-23 02:43:00,
2013-01-22 21:52:00,14.0,-99.9,30.17,WSW,248,13.0,14.0,-999,-99.99,,,-99.99,,2013-01-23 02:52:00,
2013-01-22 22:23:00,14.0,-99.9,30.17,WSW,248,13.0,14.0,-999,-99.99,,,-99.99,,2013-01-23 03:23:00,
2013-01-22 22:33:00,14.0,-99.9,30.17,WSW,248,13.0,14.0,-999,-99.99,,,-99.99,,2013-01-23 03:33:00,
2013-01-22 22:43:00,14.0,-99.9,30.17,WSW,248,13.0,14.0,-999,-99.99,,,-99.99,,2013-01-23 03:43:00,
2013-01-22 22:52:00,14.0,-99.9,30.18,West,281,-999.0,8.0,-999,-99.99,,,-99.99,,2013-01-23 03:52:00,
2013-01-22 23:23:00,14.0,-99.9,30.18,West,281,-999.0,8.0,-999,-99.99,,,-99.99,,2013-01-23 04:23:00,
2013-01-22 23:33:00,14.0,-99.9,30.18,West,281,-999.0,8.0,-999,-99.99,,,-99.99,,2013-01-23 04:33:00,
2013-01-22 23:43:00,14.0,-99.9,30.18,West,281,-999.0,8.0,-999,-99.99,,,-99.99,,2013-01-23 04:43:00,
2013-01-22 23:52:00,13.0,-99.9,30.17,WNW,283,-999.0,10.0,-999,-99.99,,,-99.99,,2013-01-23 04:52:00,